Terminal Aerodrome Forecast
Issued by NWS Pocatello, ID

Home | Current Version | Previous Version | Text Only | Print | Product List | Glossary On
Versions: 1 2 3 4 5 6 7 8 9 10 11 12 13
000
FTUS45 KPIH 041120
TAFBYI
TAF
KBYI 041120Z 0412/0512 VRB06KT P6SM SCT110
     FM041900 06007KT P6SM VCTS SCT070CB BKN110
     FM050300 VRB06KT P6SM SCT110 SCT200=

USA.gov is the U.S. government's official web portal to all federal, state and local government web resources and services.